Roscoe, MO (64781)

12:12 PM CDT on October 23, 2014 (GMT -0500)
Gordon's Orchard | Change Station
CLOSE
Current Station
Personal Weather Station
Location: Collins, MO
Elevation: 925 ft
Nearby Weather Stations

Elev 925 ft 37.98 °N, 93.65 °W | Updated 22 seconds ago

Overcast
Overcast
62.1 °F
Feels Like 62.1 °F
N
0.0
Wind Variable Wind from North

Today
High -- | Low -- °F
--% Chance of Precip.
Yesterday
High -- | Low -- °F
Precip. -- in
7:31 AM 6:26 PM
Waning Crescent, 0% visible
Pressure 30.16 in
Visibility 5.0 miles
Clouds Overcast 1400 ft
Dew Point 56 °F
Humidity 82%
Rainfall 0.00 in
Snow Depth Not available.
UV 1 out of 12
Pollen 1.90 out of 12
Air Quality Not available.
Flu Activity No Activity
METAR KGLY 231655Z AUTO 19006KT 5SM HZ OVC014 16/13 A3016 RMK AO2

More Conditions Fewer Conditions

Pressure 30.16 in
Visibility 5.0 miles
Clouds Overcast 1400 ft
Dew Point 56 °F
Humidity 82%
Rainfall 0.00 in
Snow Depth Not available.
UV 1 out of 12
Pollen 1.90 out of 12
Air Quality Not available.
Flu Activity No Activity
METAR KGLY 231655Z AUTO 19006KT 5SM HZ OVC014 16/13 A3016 RMK AO2

More Conditions Fewer Conditions

10-Day Weather Forecast

Almanac

Astronomy

Oct. 23, 2014 Rise Set
Actual Time 7:31 AM CDT 6:26 PM CDT
Civil Twilight 7:04 AM CDT 6:53 PM CDT
Nautical Twilight 6:34 AM CDT 7:24 PM CDT
Astronomical Twilight 6:03 AM CDT 7:54 PM CDT
Moon 7:12 AM CDT 6:28 PM CDT
Length of Visible Light 11h 48m
Length of Day
10h 55m
Tomorrow will be 2m 16s shorter.
Waning Crescent, 0% of the Moon is Illuminated
Today
Waning Crescent
Oct 23
New
Oct 30
First Quarter
Nov 6
Full
Nov 14
Last Quarter

Today's Extremes

State Highs State Lows

Community

WunderPhotos

Upload Photos

1,764,316 photos uploaded!

WunderBlogs® & News

Nearby

Snow Depth

Station Depth Elevation
No new snow has been reported.

Earthquake Activity

City Distance Mag. Time & Date
No recent earthquake activity has been reported nearby.
Minimum magnitude displayed is 2.5.

Coastal Water Temperatures

Place Temperature
No Stations Reporting

Nearby Weather Stations